Time;durP1;ratioP1;P1;durP2;ratioP2;P2;SDS_P1;SDS_P2;PMS_P1;PMS_P2;Temp;Humidity;BMP_temperature;BMP_pressure;BME280_temperature;BME280_humidity;BME280_pressure;Samples;Min_cycle;Max_cycle;Signal;HPM_P1;HPM_P2
2022/09/23 00:01:01;;;;;;;3.90;3.30;;;;;;;;;;5031639;28;20402;-44
2022/09/23 00:03:27;;;;;;;4.87;2.90;;;;;;;;;;5031476;28;20532;-43
2022/09/23 00:05:57;;;;;;;2.70;2.50;;;;;;;;;;5031310;28;20402;-43
2022/09/23 00:08:23;;;;;;;8.60;3.10;;;;;;;;;;5031726;28;20925;-43
2022/09/23 00:10:49;;;;;;;3.50;3.13;;;;;;;;;;5031783;28;20430;-43
2022/09/23 00:13:15;;;;;;;4.03;3.70;;;;;;;;;;5031519;28;20455;-43
2022/09/23 00:15:41;;;;;;;3.50;3.20;;;;;;;;;;5031333;28;20406;-43
2022/09/23 00:18:07;;;;;;;6.23;3.63;;;;;;;;;;5032060;28;20423;-43
2022/09/23 00:20:34;;;;;;;3.43;2.80;;;;;;;;;;5031622;28;20493;-43
2022/09/23 00:23:00;;;;;;;3.50;3.20;;;;;;;;;;5031374;28;20811;-43
2022/09/23 00:25:28;;;;;;;3.97;2.90;;;;;;;;;;5031260;28;20514;-43
2022/09/23 00:27:54;;;;;;;4.43;3.10;;;;;;;;;;5031530;28;20438;-43
2022/09/23 00:30:22;;;;;;;3.40;2.93;;;;;;;;;;5031609;28;20402;-43
2022/09/23 00:32:48;;;;;;;3.77;2.97;;;;;;;;;;5031256;28;20410;-44
2022/09/23 00:35:14;;;;;;;3.63;2.70;;;;;;;;;;5031018;28;20826;-43
2022/09/23 00:37:40;;;;;;;4.50;2.60;;;;;;;;;;5031436;28;20462;-44
2022/09/23 00:40:07;;;;;;;5.63;2.80;;;;;;;;;;5031524;28;20461;-46
2022/09/23 00:42:33;;;;;;;3.30;3.00;;;;;;;;;;5031426;28;20899;-43
2022/09/23 00:45:00;;;;;;;3.30;2.50;;;;;;;;;;5030736;28;20402;-43
2022/09/23 00:47:26;;;;;;;4.67;3.07;;;;;;;;;;5031357;28;20422;-43
2022/09/23 00:50:12;;;;;;;5.70;2.80;;;;;;;;;;5031324;28;20777;-43
2022/09/23 00:52:38;;;;;;;3.10;2.30;;;;;;;;;;5031104;28;20961;-43
2022/09/23 00:55:07;;;;;;;2.90;2.50;;;;;;;;;;5030755;28;20411;-43
2022/09/23 00:57:33;;;;;;;2.67;2.47;;;;;;;;;;5031288;28;20422;-43
2022/09/23 01:00:00;;;;;;;5.20;2.47;;;;;;;;;;5031206;28;20407;-46
2022/09/23 01:02:27;;;;;;;2.93;2.60;;;;;;;;;;5030529;28;20791;-44
2022/09/23 01:04:53;;;;;;;2.60;2.17;;;;;;;;;;5030105;28;20437;-43
2022/09/23 01:07:18;;;;;;;3.13;1.80;;;;;;;;;;5030896;28;20423;-43
2022/09/23 01:09:46;;;;;;;4.07;3.07;;;;;;;;;;5030686;28;20486;-43
2022/09/23 01:12:18;;;;;;;2.10;2.00;;;;;;;;;;5031155;28;20899;-43
2022/09/23 01:15:05;;;;;;;12.00;2.70;;;;;;;;;;5034301;28;20453;-43
2022/09/23 01:17:43;;;;;;;5.60;2.30;;;;;;;;;;5034845;28;20422;-43
2022/09/23 01:20:15;;;;;;;3.20;2.17;;;;;;;;;;5034590;28;20463;-44
2022/09/23 01:22:57;;;;;;;2.50;2.30;;;;;;;;;;5034476;28;20484;-45
2022/09/23 01:25:30;;;;;;;2.73;2.20;;;;;;;;;;5034534;28;20408;-45
2022/09/23 01:28:14;;;;;;;2.60;1.70;;;;;;;;;;5034584;28;20783;-43
2022/09/23 01:30:49;;;;;;;3.00;2.80;;;;;;;;;;5034980;28;20430;-43
2022/09/23 01:33:19;;;;;;;2.30;2.20;;;;;;;;;;5034177;28;20419;-43
2022/09/23 01:35:46;;;;;;;3.17;2.57;;;;;;;;;;5033980;28;20403;-43
2022/09/23 01:38:30;;;;;;;3.77;2.10;;;;;;;;;;5034199;28;20426;-43
2022/09/23 01:40:59;;;;;;;3.60;2.23;;;;;;;;;;5034330;28;20436;-45
2022/09/23 01:43:37;;;;;;;2.90;2.37;;;;;;;;;;5033940;28;20442;-43
2022/09/23 01:46:08;;;;;;;2.90;2.40;;;;;;;;;;5033696;28;20403;-43
2022/09/23 01:48:40;;;;;;;3.30;2.30;;;;;;;;;;5034136;28;20407;-43
2022/09/23 01:51:08;;;;;;;4.57;2.30;;;;;;;;;;5034136;28;20764;-43
2022/09/23 01:53:53;;;;;;;2.60;2.00;;;;;;;;;;5034363;28;20402;-43
2022/09/23 01:56:30;;;;;;;3.23;2.93;;;;;;;;;;5033951;28;20875;-43
2022/09/23 01:59:14;;;;;;;2.07;1.97;;;;;;;;;;5034287;28;20772;-46
2022/09/23 02:01:46;;;;;;;3.53;2.00;;;;;;;;;;5033766;28;20824;-43
2022/09/23 02:04:21;;;;;;;3.93;2.40;;;;;;;;;;5033164;28;20470;-43
2022/09/23 02:06:59;;;;;;;8.80;2.23;;;;;;;;;;5033799;28;20419;-43
2022/09/23 02:09:27;;;;;;;2.60;2.40;;;;;;;;;;5033984;28;20409;-44
2022/09/23 02:11:56;;;;;;;3.30;2.17;;;;;;;;;;5033737;28;20410;-43
2022/09/23 02:14:24;;;;;;;2.60;2.40;;;;;;;;;;5033521;28;20997;-43
2022/09/23 02:16:51;;;;;;;3.33;3.03;;;;;;;;;;5033503;28;20439;-43
2022/09/23 02:19:35;;;;;;;3.70;2.30;;;;;;;;;;5033610;28;20421;-43
2022/09/23 02:22:30;;;;;;;5.20;2.53;;;;;;;;;;5033536;28;20419;-43
2022/09/23 02:24:57;;;;;;;2.53;2.30;;;;;;;;;;4996120;28;20844;-43
2022/09/23 02:27:26;;;;;;;3.93;2.83;;;;;;;;;;5033380;28;20479;-43
2022/09/23 02:30:01;;;;;;;6.00;3.43;;;;;;;;;;5033334;28;20423;-43
2022/09/23 02:32:33;;;;;;;6.20;3.17;;;;;;;;;;5033342;28;20989;-43
2022/09/23 02:35:21;;;;;;;3.20;2.83;;;;;;;;;;5032633;28;20398;-44
2022/09/23 02:37:53;;;;;;;2.60;2.40;;;;;;;;;;5033038;28;20429;-43
2022/09/23 02:40:34;;;;;;;5.00;3.00;;;;;;;;;;5033394;28;20429;-42
2022/09/23 02:43:18;;;;;;;2.33;2.10;;;;;;;;;;5032884;28;20453;-43
2022/09/23 02:45:44;;;;;;;3.43;2.50;;;;;;;;;;5032669;28;20456;-42
2022/09/23 02:48:13;;;;;;;2.40;2.20;;;;;;;;;;5032759;28;20415;-43
2022/09/23 02:50:39;;;;;;;2.80;2.60;;;;;;;;;;5033036;28;20402;-43
2022/09/23 02:53:07;;;;;;;2.80;2.13;;;;;;;;;;5032732;28;20407;-43
2022/09/23 02:55:32;;;;;;;3.80;2.77;;;;;;;;;;5032562;28;20473;-43
2022/09/23 02:58:02;;;;;;;3.10;2.80;;;;;;;;;;5032776;28;20438;-44
2022/09/23 03:00:33;;;;;;;2.57;2.37;;;;;;;;;;5032776;28;20413;-45
2022/09/23 03:03:10;;;;;;;5.47;2.80;;;;;;;;;;5032239;28;20485;-43
2022/09/23 03:05:39;;;;;;;6.50;2.43;;;;;;;;;;5032327;28;20398;-43
2022/09/23 03:08:17;;;;;;;2.87;2.57;;;;;;;;;;5032499;28;20792;-43
2022/09/23 03:10:53;;;;;;;2.73;2.53;;;;;;;;;;5032624;28;20394;-43
2022/09/23 03:13:21;;;;;;;4.00;2.97;;;;;;;;;;5032349;28;20406;-43
2022/09/23 03:15:56;;;;;;;2.83;2.63;;;;;;;;;;5032695;28;20415;-45
2022/09/23 03:18:31;;;;;;;2.60;2.40;;;;;;;;;;5032289;28;20444;-45
2022/09/23 03:21:00;;;;;;;3.43;3.13;;;;;;;;;;5032508;28;20961;-45
2022/09/23 03:23:29;;;;;;;3.10;2.63;;;;;;;;;;5032134;28;20799;-46
2022/09/23 03:25:55;;;;;;;2.97;2.50;;;;;;;;;;5031933;28;20411;-45
2022/09/23 03:28:22;;;;;;;2.70;2.50;;;;;;;;;;5032383;28;20414;-45
2022/09/23 03:30:52;;;;;;;3.60;3.30;;;;;;;;;;5032414;28;20402;-45
2022/09/23 03:33:21;;;;;;;2.90;2.60;;;;;;;;;;5032040;28;20631;-45
2022/09/23 03:38:55;;;;;;;2.90;2.70;;;;;;;;;;5032110;28;20926;-45
2022/09/23 03:41:27;;;;;;;3.23;2.93;;;;;;;;;;5032078;28;20402;-45
2022/09/23 03:43:56;;;;;;;4.90;2.80;;;;;;;;;;5031396;28;20489;-45
2022/09/23 03:46:23;;;;;;;3.37;3.07;;;;;;;;;;5031829;28;20783;-45
2022/09/23 03:48:49;;;;;;;4.60;2.97;;;;;;;;;;5032010;28;21105;-45
2022/09/23 03:51:22;;;;;;;2.70;2.50;;;;;;;;;;5032004;28;20400;-45
2022/09/23 03:53:49;;;;;;;3.07;2.73;;;;;;;;;;5031361;28;20930;-45
2022/09/23 03:56:15;;;;;;;3.07;2.73;;;;;;;;;;5031972;28;20418;-45
2022/09/23 03:58:44;;;;;;;5.10;3.47;;;;;;;;;;5031588;28;20407;-45
2022/09/23 04:01:10;;;;;;;5.43;4.10;;;;;;;;;;5031751;28;20407;-45
2022/09/23 04:03:36;;;;;;;3.80;3.10;;;;;;;;;;5031561;28;20549;-45
2022/09/23 04:06:02;;;;;;;3.37;2.93;;;;;;;;;;5031320;28;20434;-45
2022/09/23 04:08:28;;;;;;;3.00;2.80;;;;;;;;;;5031905;28;20896;-45
2022/09/23 04:10:58;;;;;;;3.30;3.00;;;;;;;;;;5031855;28;20411;-45
2022/09/23 04:13:24;;;;;;;3.10;2.80;;;;;;;;;;5031552;28;20487;-45
2022/09/23 04:15:50;;;;;;;4.37;2.80;;;;;;;;;;5031242;28;20437;-45
2022/09/23 04:18:16;;;;;;;3.03;2.60;;;;;;;;;;5031575;28;20448;-45
2022/09/23 04:20:42;;;;;;;3.30;2.80;;;;;;;;;;5031716;28;20821;-45
2022/09/23 04:23:08;;;;;;;3.10;2.80;;;;;;;;;;5031766;28;20977;-45
2022/09/23 04:25:34;;;;;;;4.30;3.80;;;;;;;;;;5031269;28;20464;-45
2022/09/23 04:28:00;;;;;;;8.87;3.90;;;;;;;;;;5031360;28;20560;-45
2022/09/23 04:30:26;;;;;;;3.10;2.90;;;;;;;;;;5031536;28;20410;-45
2022/09/23 04:32:52;;;;;;;3.37;2.90;;;;;;;;;;5031656;28;20406;-45
2022/09/23 04:35:18;;;;;;;3.33;2.80;;;;;;;;;;5031262;28;20444;-45
2022/09/23 04:37:47;;;;;;;3.73;3.30;;;;;;;;;;5031456;28;20441;-46
2022/09/23 04:40:13;;;;;;;6.27;3.60;;;;;;;;;;5031526;28;20402;-45
2022/09/23 04:42:39;;;;;;;5.23;3.80;;;;;;;;;;5031347;28;20418;-45
2022/09/23 04:45:05;;;;;;;4.10;3.50;;;;;;;;;;5030781;28;20934;-45
2022/09/23 04:47:31;;;;;;;3.97;3.50;;;;;;;;;;5031906;28;20509;-45
2022/09/23 04:49:58;;;;;;;4.80;3.30;;;;;;;;;;5035266;28;20441;-45
2022/09/23 04:52:24;;;;;;;3.93;3.00;;;;;;;;;;5035238;28;20409;-45
2022/09/23 04:54:50;;;;;;;4.00;3.60;;;;;;;;;;5034668;28;20819;-45
2022/09/23 04:57:16;;;;;;;5.30;3.00;;;;;;;;;;5035028;28;20813;-45
2022/09/23 04:59:44;;;;;;;6.90;4.20;;;;;;;;;;5034966;28;20409;-45
2022/09/23 05:02:10;;;;;;;3.30;3.00;;;;;;;;;;5034937;28;20426;-45
2022/09/23 05:04:36;;;;;;;3.40;2.90;;;;;;;;;;5034665;28;20446;-45
2022/09/23 05:07:03;;;;;;;4.10;3.40;;;;;;;;;;5034929;28;20492;-45
2022/09/23 05:09:29;;;;;;;4.43;3.80;;;;;;;;;;5034862;28;20493;-45
2022/09/23 05:11:55;;;;;;;3.50;3.20;;;;;;;;;;5034873;28;20426;-45
2022/09/23 05:14:21;;;;;;;3.13;2.83;;;;;;;;;;5034369;28;20845;-45
2022/09/23 05:16:47;;;;;;;2.80;2.60;;;;;;;;;;5034712;28;20433;-45
2022/09/23 05:19:13;;;;;;;3.97;3.57;;;;;;;;;;5034643;28;20402;-45
2022/09/23 05:21:39;;;;;;;6.70;3.23;;;;;;;;;;5034746;28;20402;-45
2022/09/23 05:24:05;;;;;;;3.50;3.20;;;;;;;;;;5033986;28;20457;-45
2022/09/23 05:26:32;;;;;;;3.40;3.10;;;;;;;;;;5034395;28;20430;-45
2022/09/23 05:28:58;;;;;;;3.90;3.60;;;;;;;;;;5034769;28;20453;-45
2022/09/23 05:31:25;;;;;;;6.70;3.37;;;;;;;;;;5034682;28;20456;-45
2022/09/23 05:33:56;;;;;;;4.30;3.40;;;;;;;;;;5033925;28;20486;-45
2022/09/23 05:36:22;;;;;;;4.33;3.40;;;;;;;;;;5034313;28;20438;-45
2022/09/23 05:38:49;;;;;;;3.77;3.47;;;;;;;;;;5034745;28;20541;-45
2022/09/23 05:41:16;;;;;;;3.87;3.23;;;;;;;;;;5034249;28;20906;-45
2022/09/23 05:43:42;;;;;;;4.47;3.43;;;;;;;;;;5033924;28;20818;-45
2022/09/23 05:46:10;;;;;;;3.53;3.23;;;;;;;;;;5033769;28;20402;-45
2022/09/23 05:48:37;;;;;;;7.27;3.73;;;;;;;;;;5034222;28;20940;-45
2022/09/23 05:51:07;;;;;;;6.93;3.63;;;;;;;;;;5034178;28;20404;-45
2022/09/23 05:53:33;;;;;;;3.37;3.03;;;;;;;;;;5033816;28;20411;-45
2022/09/23 05:55:59;;;;;;;3.50;3.20;;;;;;;;;;5033916;28;20415;-45
2022/09/23 05:58:26;;;;;;;3.47;3.17;;;;;;;;;;5033671;28;20481;-45
2022/09/23 06:00:55;;;;;;;6.10;4.03;;;;;;;;;;5034027;28;20453;-45
2022/09/23 06:03:22;;;;;;;3.77;3.47;;;;;;;;;;5033437;28;20465;-45
2022/09/23 06:05:51;;;;;;;4.60;3.23;;;;;;;;;;5033451;28;20453;-45
2022/09/23 06:08:17;;;;;;;3.47;3.00;;;;;;;;;;5033001;28;20435;-45
2022/09/23 06:10:45;;;;;;;4.10;3.70;;;;;;;;;;5032835;28;20399;-45
2022/09/23 06:13:11;;;;;;;5.70;3.00;;;;;;;;;;5033150;28;20407;-45
2022/09/23 06:15:37;;;;;;;6.90;3.70;;;;;;;;;;5033783;28;20953;-45
2022/09/23 06:18:04;;;;;;;7.73;4.23;;;;;;;;;;5042180;28;20442;-45
2022/09/23 06:20:30;;;;;;;4.03;3.43;;;;;;;;;;5033335;28;20445;-45
2022/09/23 06:23:02;;;;;;;4.37;3.70;;;;;;;;;;5033253;28;20449;-45
2022/09/23 06:25:27;;;;;;;6.33;4.03;;;;;;;;;;5032453;28;20427;-45
2022/09/23 06:27:54;;;;;;;6.00;4.27;;;;;;;;;;5032930;28;20915;-45
2022/09/23 06:30:23;;;;;;;4.97;3.90;;;;;;;;;;5033314;28;20926;-45
2022/09/23 06:32:50;;;;;;;5.80;3.80;;;;;;;;;;5033468;28;20407;-45
2022/09/23 06:35:17;;;;;;;4.37;3.97;;;;;;;;;;5032564;28;20767;-45
2022/09/23 06:37:43;;;;;;;4.47;3.40;;;;;;;;;;5033201;28;20481;-45
2022/09/23 06:40:09;;;;;;;5.17;3.43;;;;;;;;;;5033185;28;20402;-46
2022/09/23 06:42:35;;;;;;;4.63;3.23;;;;;;;;;;5033171;28;20409;-45
2022/09/23 06:45:01;;;;;;;6.23;4.27;;;;;;;;;;5032529;28;20897;-45
2022/09/23 06:47:28;;;;;;;5.93;3.40;;;;;;;;;;5033061;28;20421;-45
2022/09/23 06:49:54;;;;;;;3.87;3.27;;;;;;;;;;5033040;28;20403;-45
2022/09/23 06:52:20;;;;;;;3.90;3.27;;;;;;;;;;5032974;28;20401;-45
2022/09/23 06:54:47;;;;;;;3.93;3.50;;;;;;;;;;5032315;28;20402;-45
2022/09/23 06:57:13;;;;;;;5.90;3.20;;;;;;;;;;5032894;28;20776;-45
2022/09/23 06:59:39;;;;;;;11.30;3.57;;;;;;;;;;5032797;28;20422;-45
2022/09/23 07:02:05;;;;;;;4.33;3.87;;;;;;;;;;5032732;28;20461;-45
2022/09/23 07:04:31;;;;;;;3.83;3.43;;;;;;;;;;5031894;28;20491;-45
2022/09/23 07:06:57;;;;;;;5.40;3.83;;;;;;;;;;5032886;28;20505;-45
2022/09/23 07:09:22;;;;;;;6.33;3.37;;;;;;;;;;5032788;28;20432;-46
2022/09/23 07:11:48;;;;;;;4.50;3.73;;;;;;;;;;5031945;28;20402;-45
2022/09/23 07:14:14;;;;;;;5.73;3.60;;;;;;;;;;5032101;28;20409;-45
2022/09/23 07:16:40;;;;;;;6.00;3.77;;;;;;;;;;5032500;28;20418;-46
2022/09/23 07:19:06;;;;;;;4.57;3.40;;;;;;;;;;5032415;28;20391;-47
2022/09/23 07:21:32;;;;;;;7.50;3.77;;;;;;;;;;5032480;28;20387;-45
2022/09/23 07:23:58;;;;;;;3.67;3.37;;;;;;;;;;5032003;28;20568;-46
2022/09/23 07:26:24;;;;;;;4.63;3.20;;;;;;;;;;5032243;28;20397;-46
2022/09/23 07:28:55;;;;;;;4.47;3.80;;;;;;;;;;5032786;28;20383;-46
2022/09/23 07:31:22;;;;;;;4.07;3.30;;;;;;;;;;5032278;28;20485;-46
2022/09/23 07:33:48;;;;;;;2.60;2.40;;;;;;;;;;5032095;28;20439;-45
2022/09/23 07:36:16;;;;;;;3.50;3.20;;;;;;;;;;5031787;28;20386;-46
2022/09/23 07:38:43;;;;;;;2.93;2.70;;;;;;;;;;5032191;28;20883;-45
2022/09/23 07:41:10;;;;;;;5.70;2.97;;;;;;;;;;5032175;28;20408;-46
2022/09/23 07:43:36;;;;;;;3.60;2.50;;;;;;;;;;5031921;28;20451;-45
2022/09/23 07:46:05;;;;;;;3.37;3.13;;;;;;;;;;5031562;28;20375;-46
2022/09/23 07:48:31;;;;;;;3.30;2.30;;;;;;;;;;5031955;28;20403;-46
2022/09/23 07:50:59;;;;;;;6.33;2.70;;;;;;;;;;5032143;28;20401;-46
2022/09/23 07:53:25;;;;;;;3.53;3.17;;;;;;;;;;5031853;28;20888;-46
2022/09/23 07:55:54;;;;;;;4.27;3.30;;;;;;;;;;5031523;28;20460;-46
2022/09/23 07:58:21;;;;;;;7.57;3.10;;;;;;;;;;5031884;28;20428;-46
2022/09/23 08:00:47;;;;;;;7.93;3.17;;;;;;;;;;5032025;28;20407;-46
2022/09/23 08:03:13;;;;;;;4.87;3.37;;;;;;;;;;5031647;28;20457;-46
2022/09/23 08:05:40;;;;;;;5.07;2.90;;;;;;;;;;5031461;28;20456;-46
2022/09/23 08:08:06;;;;;;;3.40;2.70;;;;;;;;;;5037434;28;20440;-44
2022/09/23 08:10:32;;;;;;;3.10;2.90;;;;;;;;;;5047552;28;20423;-44
2022/09/23 08:12:59;;;;;;;6.27;2.80;;;;;;;;;;5051391;28;20903;-44
2022/09/23 08:15:27;;;;;;;3.47;2.77;;;;;;;;;;5051059;28;20381;-44
2022/09/23 08:17:53;;;;;;;4.70;2.53;;;;;;;;;;5051380;28;20426;-43
2022/09/23 08:23:03;;;;;;;3.07;2.80;;;;;;;;;;5054553;28;21070;-43
2022/09/23 08:25:30;;;;;;;9.17;2.67;;;;;;;;;;5055111;28;20436;-44
2022/09/23 08:27:56;;;;;;;2.63;2.43;;;;;;;;;;5055469;28;20785;-43
2022/09/23 08:30:22;;;;;;;4.40;2.33;;;;;;;;;;5055622;28;20884;-43
2022/09/23 08:32:49;;;;;;;4.43;2.43;;;;;;;;;;5055629;28;20919;-43
2022/09/23 08:35:15;;;;;;;2.30;2.10;;;;;;;;;;5054862;28;20402;-44
2022/09/23 08:37:41;;;;;;;2.80;2.40;;;;;;;;;;5055405;28;20423;-45
2022/09/23 08:40:08;;;;;;;6.00;2.37;;;;;;;;;;5055548;28;20406;-43
2022/09/23 08:42:34;;;;;;;2.70;2.37;;;;;;;;;;5053624;28;20379;-43
2022/09/23 08:45:02;;;;;;;3.00;2.20;;;;;;;;;;5054686;28;20398;-44
2022/09/23 08:47:46;;;;;;;2.43;2.23;;;;;;;;;;5055578;28;20442;-44
2022/09/23 08:50:15;;;;;;;2.60;2.07;;;;;;;;;;5055281;28;20423;-43
2022/09/23 08:52:49;;;;;;;5.43;2.13;;;;;;;;;;5055126;28;20408;-44
2022/09/23 08:55:15;;;;;;;3.40;2.10;;;;;;;;;;5054517;28;20809;-44
2022/09/23 08:58:00;;;;;;;9.40;2.50;;;;;;;;;;5054756;28;20853;-44
2022/09/23 09:00:31;;;;;;;5.40;2.17;;;;;;;;;;5055001;28;20452;-45
2022/09/23 09:02:57;;;;;;;2.23;2.00;;;;;;;;;;5054864;28;20464;-44
2022/09/23 09:05:25;;;;;;;4.20;2.30;;;;;;;;;;5054162;28;20402;-46
2022/09/23 09:07:52;;;;;;;2.40;2.20;;;;;;;;;;5054734;28;20421;-44
2022/09/23 09:10:20;;;;;;;1.73;1.63;;;;;;;;;;5054758;28;20461;-43
2022/09/23 09:12:48;;;;;;;2.37;2.27;;;;;;;;;;5054820;28;20425;-43
2022/09/23 09:15:20;;;;;;;2.30;2.17;;;;;;;;;;5052572;28;20854;-44
2022/09/23 09:18:06;;;;;;;3.20;2.23;;;;;;;;;;5054215;28;20795;-46
2022/09/23 09:20:40;;;;;;;2.80;2.13;;;;;;;;;;5054851;28;20407;-45
2022/09/23 09:23:15;;;;;;;4.27;2.27;;;;;;;;;;5054413;28;20461;-43
2022/09/23 09:25:45;;;;;;;2.67;2.43;;;;;;;;;;5054031;28;20446;-45
2022/09/23 09:28:17;;;;;;;2.37;1.90;;;;;;;;;;5053947;28;21013;-45
2022/09/23 09:30:43;;;;;;;2.60;2.10;;;;;;;;;;5054319;28;20400;-45
2022/09/23 09:33:14;;;;;;;4.40;2.20;;;;;;;;;;5053367;28;20405;-45
2022/09/23 09:36:04;;;;;;;2.53;2.17;;;;;;;;;;5053742;28;20416;-45
2022/09/23 09:38:30;;;;;;;2.80;2.40;;;;;;;;;;5054098;28;20462;-45
2022/09/23 09:40:59;;;;;;;4.67;2.70;;;;;;;;;;5054044;28;20475;-44
2022/09/23 09:43:25;;;;;;;3.00;2.00;;;;;;;;;;5053155;28;20544;-45
2022/09/23 09:45:53;;;;;;;2.40;2.20;;;;;;;;;;5053688;28;20526;-45
2022/09/23 09:48:31;;;;;;;2.07;1.97;;;;;;;;;;5054203;28;20419;-45
2022/09/23 09:50:57;;;;;;;2.50;2.30;;;;;;;;;;5054009;28;20388;-45
2022/09/23 09:53:28;;;;;;;2.30;2.10;;;;;;;;;;5053913;28;20503;-45
2022/09/23 09:56:00;;;;;;;2.50;2.30;;;;;;;;;;5053533;28;20404;-45
2022/09/23 09:58:33;;;;;;;5.93;2.20;;;;;;;;;;5053603;28;20498;-45
2022/09/23 10:01:00;;;;;;;3.47;2.30;;;;;;;;;;5053765;28;20625;-45
2022/09/23 10:03:37;;;;;;;5.47;2.00;;;;;;;;;;5053370;28;20460;-46
2022/09/23 10:06:12;;;;;;;4.10;2.50;;;;;;;;;;5053140;28;20496;-45
2022/09/23 10:08:38;;;;;;;2.97;2.20;;;;;;;;;;5053540;28;20397;-48
2022/09/23 10:11:17;;;;;;;2.40;2.23;;;;;;;;;;5053522;28;20384;-46
2022/09/23 10:14:04;;;;;;;2.30;2.10;;;;;;;;;;5053725;28;20416;-49
2022/09/23 10:16:30;;;;;;;2.53;2.27;;;;;;;;;;5053437;28;20432;-49
2022/09/23 10:18:57;;;;;;;3.40;2.33;;;;;;;;;;5053383;28;20409;-48
2022/09/23 10:21:24;;;;;;;2.10;1.90;;;;;;;;;;5053358;28;20401;-45
2022/09/23 10:23:51;;;;;;;3.57;2.23;;;;;;;;;;5053021;28;20539;-47
2022/09/23 10:26:17;;;;;;;5.63;3.40;;;;;;;;;;5048031;28;20418;-46
2022/09/23 10:28:46;;;;;;;2.40;2.20;;;;;;;;;;5050911;28;20417;-45
2022/09/23 10:31:16;;;;;;;4.80;2.20;;;;;;;;;;5052791;28;20417;-46
2022/09/23 10:33:47;;;;;;;4.40;2.07;;;;;;;;;;5051084;28;20429;-45
2022/09/23 10:36:14;;;;;;;5.00;2.23;;;;;;;;;;5052646;28;20398;-45
2022/09/23 10:38:40;;;;;;;2.07;1.87;;;;;;;;;;5048491;28;20414;-44
2022/09/23 10:46:58;;;;;;;2.17;1.97;;;;;;;;;;5051809;28;20531;-45
2022/09/23 10:49:30;;;;;;;2.20;2.00;;;;;;;;;;5043944;28;20929;-45
2022/09/23 10:52:15;;;;;;;2.70;2.13;;;;;;;;;;5032731;28;20835;-46
2022/09/23 10:54:50;;;;;;;2.80;2.60;;;;;;;;;;5043205;28;20412;-45
2022/09/23 11:00:02;;;;;;;2.20;2.00;;;;;;;;;;5033416;28;20448;-45
2022/09/23 11:02:37;;;;;;;2.70;2.20;;;;;;;;;;5038365;28;20436;-45
2022/09/23 11:05:21;;;;;;;2.63;2.20;;;;;;;;;;5051847;28;20455;-45
2022/09/23 11:08:07;;;;;;;3.83;2.07;;;;;;;;;;5051855;28;21009;-45
2022/09/23 11:10:43;;;;;;;4.40;2.40;;;;;;;;;;5032257;28;20402;-45
2022/09/23 11:13:22;;;;;;;2.13;1.93;;;;;;;;;;5032466;28;20740;-45
2022/09/23 11:15:48;;;;;;;2.00;1.90;;;;;;;;;;5051880;28;20791;-45
2022/09/23 11:18:28;;;;;;;3.10;2.07;;;;;;;;;;5050593;28;20428;-45
2022/09/23 11:21:03;;;;;;;2.27;1.80;;;;;;;;;;5032206;28;20398;-46
2022/09/23 11:23:32;;;;;;;2.50;2.30;;;;;;;;;;5042672;28;20555;-45
2022/09/23 11:26:14;;;;;;;2.20;1.83;;;;;;;;;;5051819;28;20794;-45
2022/09/23 11:28:40;;;;;;;2.00;1.80;;;;;;;;;;5039791;28;20428;-47
2022/09/23 11:31:11;;;;;;;5.00;1.70;;;;;;;;;;5032335;28;20397;-46
2022/09/23 11:33:57;;;;;;;1.83;1.73;;;;;;;;;;5042276;28;20427;-46
2022/09/23 11:36:26;;;;;;;2.17;1.90;;;;;;;;;;5040206;28;20437;-46
2022/09/23 11:38:54;;;;;;;2.40;2.20;;;;;;;;;;5041796;28;20509;-46
2022/09/23 11:41:34;;;;;;;2.90;1.57;;;;;;;;;;5047977;28;20413;-46
2022/09/23 11:44:04;;;;;;;2.07;1.87;;;;;;;;;;5051845;28;20463;-46
2022/09/23 11:46:33;;;;;;;3.10;1.73;;;;;;;;;;5049839;28;20475;-46
2022/09/23 11:49:06;;;;;;;3.47;1.87;;;;;;;;;;5042705;28;20418;-44
2022/09/23 11:51:40;;;;;;;1.83;1.70;;;;;;;;;;5047918;28;20413;-46
2022/09/23 11:54:27;;;;;;;1.83;1.60;;;;;;;;;;5051271;28;20397;-46
2022/09/23 11:56:56;;;;;;;2.10;1.93;;;;;;;;;;5050914;28;20429;-46
2022/09/23 11:59:37;;;;;;;2.23;1.93;;;;;;;;;;5051500;28;20425;-46
2022/09/23 12:02:08;;;;;;;1.87;1.70;;;;;;;;;;5051490;28;20421;-45
2022/09/23 12:04:38;;;;;;;2.20;1.80;;;;;;;;;;5050991;28;21098;-44
2022/09/23 12:07:07;;;;;;;1.70;1.50;;;;;;;;;;5051556;28;20417;-47
2022/09/23 12:09:47;;;;;;;2.97;1.67;;;;;;;;;;5051308;28;20406;-45
2022/09/23 12:12:20;;;;;;;1.63;1.53;;;;;;;;;;5051439;28;20401;-44
2022/09/23 12:14:46;;;;;;;1.63;1.53;;;;;;;;;;5051291;28;20413;-44
2022/09/23 12:17:18;;;;;;;2.47;1.50;;;;;;;;;;5051726;28;20425;-44
2022/09/23 12:20:00;;;;;;;2.07;1.87;;;;;;;;;;5051070;28;20928;-45
2022/09/23 12:22:46;;;;;;;2.37;1.63;;;;;;;;;;5050393;28;20404;-45
2022/09/23 12:25:26;;;;;;;1.90;1.80;;;;;;;;;;5050036;28;20924;-45
2022/09/23 12:27:54;;;;;;;2.17;1.77;;;;;;;;;;5051246;28;20451;-49
2022/09/23 12:30:22;;;;;;;2.90;1.53;;;;;;;;;;5051241;28;20451;-48
2022/09/23 12:32:48;;;;;;;2.43;1.37;;;;;;;;;;5051446;28;20436;-47
2022/09/23 12:35:22;;;;;;;2.80;1.83;;;;;;;;;;5050673;28;20403;-49
2022/09/23 12:37:48;;;;;;;1.90;1.80;;;;;;;;;;5050948;28;20793;-49
2022/09/23 12:40:23;;;;;;;1.97;1.50;;;;;;;;;;5051233;28;20394;-46
2022/09/23 12:42:49;;;;;;;1.70;1.60;;;;;;;;;;5051103;28;20894;-46
2022/09/23 12:45:18;;;;;;;2.07;1.60;;;;;;;;;;5050646;28;20909;-45
2022/09/23 12:47:44;;;;;;;1.43;1.33;;;;;;;;;;5050802;28;20961;-46
2022/09/23 12:50:33;;;;;;;2.17;1.60;;;;;;;;;;5051421;28;20489;-46
2022/09/23 12:53:18;;;;;;;3.17;2.97;;;;;;;;;;5051384;28;20447;-46
2022/09/23 12:55:45;;;;;;;2.00;1.80;;;;;;;;;;5050631;28;20405;-45
2022/09/23 12:58:30;;;;;;;4.57;2.13;;;;;;;;;;5050549;28;20843;-45
2022/09/23 13:01:06;;;;;;;8.00;1.40;;;;;;;;;;5051288;28;20943;-45
2022/09/23 13:09:01;;;;;;;2.10;1.90;;;;;;;;;;5052279;28;20408;-43
2022/09/23 13:11:29;;;;;;;4.83;1.67;;;;;;;;;;5054554;28;20397;-43
2022/09/23 13:13:56;;;;;;;6.20;1.83;;;;;;;;;;5054411;28;20409;-43
2022/09/23 13:16:25;;;;;;;1.50;1.37;;;;;;;;;;5054078;28;20839;-43
2022/09/23 13:18:52;;;;;;;2.13;1.53;;;;;;;;;;5054156;28;20916;-45
2022/09/23 13:21:38;;;;;;;3.37;2.30;;;;;;;;;;5054409;28;20458;-43
2022/09/23 13:24:33;;;;;;;2.27;1.80;;;;;;;;;;5054108;28;20455;-43
2022/09/23 13:26:59;;;;;;;1.50;1.40;;;;;;;;;;5054294;28;20422;-43
2022/09/23 13:29:27;;;;;;;4.50;2.10;;;;;;;;;;5053871;28;20907;-44
2022/09/23 13:31:55;;;;;;;2.20;1.80;;;;;;;;;;5054298;28;20412;-44
2022/09/23 13:34:22;;;;;;;2.60;1.40;;;;;;;;;;5053563;28;20408;-43
2022/09/23 13:36:48;;;;;;;2.43;1.73;;;;;;;;;;5054323;28;20866;-46
2022/09/23 13:39:15;;;;;;;5.13;1.87;;;;;;;;;;5053849;28;20500;-43
2022/09/23 13:41:42;;;;;;;1.83;1.63;;;;;;;;;;5052884;28;20416;-44
2022/09/23 13:44:13;;;;;;;1.53;1.30;;;;;;;;;;5053522;28;20451;-43
2022/09/23 13:46:42;;;;;;;1.83;1.70;;;;;;;;;;5054030;28;20512;-46
2022/09/23 13:49:20;;;;;;;1.60;1.50;;;;;;;;;;5054175;28;20394;-47
2022/09/23 13:51:46;;;;;;;2.30;1.57;;;;;;;;;;5052045;28;20408;-47
2022/09/23 13:54:27;;;;;;;3.87;1.93;;;;;;;;;;5051702;28;20414;-49
2022/09/23 13:56:53;;;;;;;2.20;2.00;;;;;;;;;;5053110;28;20835;-50
2022/09/23 13:59:28;;;;;;;1.90;1.80;;;;;;;;;;5051653;28;20404;-49
2022/09/23 14:02:15;;;;;;;3.17;2.13;;;;;;;;;;5053500;28;20433;-48
2022/09/23 14:04:41;;;;;;;2.40;2.00;;;;;;;;;;5052930;28;20501;-49
2022/09/23 14:07:08;;;;;;;2.13;1.63;;;;;;;;;;5053578;28;20404;-49
2022/09/23 14:09:34;;;;;;;3.43;1.90;;;;;;;;;;5053512;28;20400;-48
2022/09/23 14:12:01;;;;;;;3.00;2.23;;;;;;;;;;5053705;28;20408;-49
2022/09/23 14:14:29;;;;;;;2.30;2.07;;;;;;;;;;5053019;28;20479;-49
2022/09/23 14:16:56;;;;;;;3.73;1.70;;;;;;;;;;5053436;28;20431;-50
2022/09/23 14:19:23;;;;;;;2.90;2.13;;;;;;;;;;5052812;28;20407;-47
2022/09/23 14:21:53;;;;;;;6.87;2.00;;;;;;;;;;5053506;28;20813;-49
2022/09/23 14:24:30;;;;;;;2.80;2.60;;;;;;;;;;5052783;28;20484;-49
2022/09/23 14:27:16;;;;;;;2.33;2.13;;;;;;;;;;5053188;28;20791;-50
2022/09/23 14:29:44;;;;;;;4.50;2.73;;;;;;;;;;5052798;28;20403;-48
2022/09/23 14:32:19;;;;;;;6.43;2.60;;;;;;;;;;5053318;28;20434;-48
2022/09/23 14:34:46;;;;;;;2.50;2.30;;;;;;;;;;5052665;28;20412;-48
2022/09/23 14:40:17;;;;;;;4.03;2.67;;;;;;;;;;5042374;28;20434;-49
2022/09/23 14:42:48;;;;;;;9.33;2.43;;;;;;;;;;5053039;28;20459;-48
2022/09/23 14:45:19;;;;;;;2.50;2.30;;;;;;;;;;5052388;28;20406;-47
2022/09/23 14:47:47;;;;;;;3.53;2.47;;;;;;;;;;5052838;28;20392;-46
2022/09/23 14:50:35;;;;;;;3.90;2.80;;;;;;;;;;5052991;28;20726;-48
2022/09/23 14:53:02;;;;;;;5.90;2.30;;;;;;;;;;5052815;28;20395;-48
2022/09/23 14:55:28;;;;;;;5.30;2.53;;;;;;;;;;5052189;28;20417;-50
2022/09/23 14:58:04;;;;;;;8.10;3.87;;;;;;;;;;5052405;28;20380;-50
2022/09/23 15:00:31;;;;;;;4.43;2.83;;;;;;;;;;5052759;28;20755;-50
2022/09/23 15:03:01;;;;;;;5.63;2.57;;;;;;;;;;5052496;28;20438;-49
2022/09/23 15:05:46;;;;;;;2.93;2.30;;;;;;;;;;5051853;28;20398;-49
2022/09/23 15:08:15;;;;;;;8.00;3.07;;;;;;;;;;5052318;28;20460;-48
2022/09/23 15:10:41;;;;;;;2.83;2.37;;;;;;;;;;5052561;28;20703;-49
2022/09/23 15:13:18;;;;;;;9.17;2.77;;;;;;;;;;5052492;28;20452;-49
2022/09/23 15:15:44;;;;;;;7.67;2.43;;;;;;;;;;5051620;28;20435;-49
2022/09/23 15:18:13;;;;;;;4.70;2.30;;;;;;;;;;5052012;28;20433;-48
2022/09/23 15:20:39;;;;;;;4.93;2.63;;;;;;;;;;5052294;28;20906;-48
2022/09/23 15:23:05;;;;;;;5.70;2.67;;;;;;;;;;5052190;28;20406;-48